Time;durP1;ratioP1;P1;durP2;ratioP2;P2;SDS_P1;SDS_P2;PMS_P1;PMS_P2;Temp;Humidity;BMP_temperature;BMP_pressure;BME280_temperature;BME280_humidity;BME280_pressure;Samples;Min_cycle;Max_cycle;Signal;HPM_P1;HPM_P2
2021/12/04 00:00:49;;;;;;;7.92;4.90;;;3.20;99.90;;;;;;1913494;75;21059;-85
2021/12/04 00:03:40;;;;;;;5.95;4.28;;;3.20;99.90;;;;;;1906107;75;21071;-85
2021/12/04 00:06:36;;;;;;;6.95;4.70;;;3.10;99.90;;;;;;1910385;75;21216;-85
2021/12/04 00:09:24;;;;;;;9.13;5.10;;;3.10;99.90;;;;;;1909985;75;21501;-85
2021/12/04 00:12:16;;;;;;;7.33;5.10;;;3.10;99.90;;;;;;1885221;75;21043;-85
2021/12/04 00:15:09;;;;;;;8.15;5.58;;;3.10;99.90;;;;;;1896337;75;21104;-84
2021/12/04 00:18:19;;;;;;;8.50;5.72;;;3.00;99.90;;;;;;1908960;75;21123;-85
2021/12/04 00:21:30;;;;;;;6.75;5.55;;;2.90;99.90;;;;;;1891821;75;21044;-86
2021/12/04 00:24:23;;;;;;;7.83;5.55;;;2.90;99.90;;;;;;1904952;75;21106;-86
2021/12/04 00:27:16;;;;;;;7.65;5.15;;;2.90;99.90;;;;;;1914887;74;21110;-85
2021/12/04 00:30:11;;;;;;;7.95;5.83;;;2.90;99.90;;;;;;1917301;75;21144;-85
2021/12/04 00:33:06;;;;;;;7.53;5.22;;;2.90;99.90;;;;;;1911532;75;21116;-85
2021/12/04 00:35:58;;;;;;;4.90;4.00;;;2.90;99.90;;;;;;1894505;75;21503;-85
2021/12/04 00:51:17;;;;;;;8.55;5.00;;;3.10;99.90;;;;;;1901168;75;21083;-86
2021/12/04 00:54:10;;;;;;;5.47;4.40;;;3.10;99.90;;;;;;1911428;75;21063;-86
2021/12/04 00:59:46;;;;;;;8.98;6.80;;;3.00;99.90;;;;;;1922691;73;28035;-85
2021/12/04 01:02:37;;;;;;;7.83;5.60;;;3.20;99.90;;;;;;1898996;75;21059;-86
2021/12/04 01:05:28;;;;;;;6.22;4.85;;;3.10;99.90;;;;;;1892774;75;21083;-86
2021/12/04 01:08:21;;;;;;;6.05;4.62;;;3.10;99.90;;;;;;1893804;75;21066;-87
2021/12/04 01:14:13;;;;;;;5.83;4.47;;;3.00;99.90;;;;;;1951251;72;22280;-86
2021/12/04 01:17:04;;;;;;;5.40;3.80;;;3.00;99.90;;;;;;1898507;75;21126;-85
2021/12/04 01:19:56;;;;;;;6.10;4.58;;;2.90;99.90;;;;;;1878557;76;21267;-85
2021/12/04 01:25:28;;;;;;;6.03;4.40;;;2.90;99.90;;;;;;1933017;72;22142;-85
2021/12/04 01:28:19;;;;;;;6.30;4.65;;;2.80;99.90;;;;;;1883249;75;21106;-86
2021/12/04 01:31:13;;;;;;;5.67;3.87;;;2.80;99.90;;;;;;1903221;73;21146;-85
2021/12/04 01:34:05;;;;;;;5.70;4.17;;;2.80;99.90;;;;;;1897941;75;21503;-85
2021/12/04 01:37:15;;;;;;;5.60;4.33;;;2.80;99.90;;;;;;1903940;75;21114;-85
2021/12/04 01:42:53;;;;;;;6.22;4.85;;;2.80;99.90;;;;;;1962839;72;22238;-85
2021/12/04 01:45:44;;;;;;;7.58;4.97;;;2.80;99.90;;;;;;1917651;73;21168;-85
2021/12/04 01:48:36;;;;;;;7.53;5.75;;;2.90;99.90;;;;;;1939531;73;21075;-85
2021/12/04 01:51:29;;;;;;;9.50;5.90;;;2.80;99.90;;;;;;1923803;73;21066;-85
2021/12/04 01:54:40;;;;;;;7.55;5.55;;;2.80;99.90;;;;;;1928081;73;21089;-85
2021/12/04 01:57:34;;;;;;;7.30;5.22;;;2.80;99.90;;;;;;1932208;73;21062;-85
2021/12/04 02:00:26;;;;;;;6.72;4.40;;;2.80;99.90;;;;;;1932154;73;21058;-85
2021/12/04 02:03:18;;;;;;;5.53;4.70;;;2.80;99.90;;;;;;1918045;73;21158;-85
2021/12/04 02:06:12;;;;;;;6.00;3.72;;;2.80;99.90;;;;;;1917770;73;21087;-85
2021/12/04 02:09:04;;;;;;;5.33;4.25;;;2.80;99.90;;;;;;1930209;73;21158;-85
2021/12/04 02:11:56;;;;;;;5.67;4.35;;;2.90;99.90;;;;;;1930125;73;21042;-85
2021/12/04 02:14:50;;;;;;;5.03;3.92;;;2.90;99.90;;;;;;1940877;73;21059;-85
2021/12/04 02:17:45;;;;;;;6.12;4.47;;;2.80;99.90;;;;;;1932998;73;21070;-86
2021/12/04 02:20:38;;;;;;;7.28;4.58;;;2.90;99.90;;;;;;1930279;73;21070;-84
2021/12/04 02:23:31;;;;;;;6.22;4.65;;;2.90;99.90;;;;;;1943967;73;21703;-85
2021/12/04 02:29:02;;;;;;;6.50;5.03;;;2.90;99.90;;;;;;1941587;72;22315;-85
2021/12/04 02:31:55;;;;;;;6.70;5.05;;;3.00;99.90;;;;;;1917974;74;21184;-85
2021/12/04 02:34:47;;;;;;;6.28;5.25;;;3.00;99.90;;;;;;1897124;75;21064;-85
2021/12/04 02:37:39;;;;;;;8.25;5.30;;;3.00;99.90;;;;;;1889730;75;21058;-85
2021/12/04 02:40:49;;;;;;;7.65;5.30;;;3.10;99.90;;;;;;1886314;75;21055;-85
2021/12/04 02:43:42;;;;;;;6.55;5.17;;;3.00;99.90;;;;;;1905418;75;21159;-85
2021/12/04 02:49:15;;;;;;;7.70;5.22;;;2.90;99.90;;;;;;1934578;72;22174;-86
2021/12/04 02:54:50;;;;;;;6.17;4.72;;;3.00;99.90;;;;;;1941701;72;22201;-86
2021/12/04 02:57:44;;;;;;;6.10;4.45;;;3.00;99.90;;;;;;1900217;75;21161;-85
2021/12/04 03:00:41;;;;;;;6.75;4.75;;;3.00;99.90;;;;;;1890922;75;21097;-84
2021/12/04 03:03:32;;;;;;;7.53;5.05;;;3.00;99.90;;;;;;1904259;75;21148;-84
2021/12/04 03:06:46;;;;;;;5.90;4.70;;;3.10;99.90;;;;;;1914663;75;21039;-85
2021/12/04 03:09:38;;;;;;;6.00;4.67;;;3.10;99.90;;;;;;1906587;75;21143;-85
2021/12/04 03:12:29;;;;;;;5.92;4.50;;;3.00;99.90;;;;;;1903260;75;21572;-85
2021/12/04 03:18:01;;;;;;;4.55;4.03;;;3.10;99.90;;;;;;1928054;72;22148;-85
2021/12/04 03:20:54;;;;;;;6.28;4.58;;;3.20;99.90;;;;;;1917178;74;21106;-85
2021/12/04 03:23:53;;;;;;;6.03;4.70;;;3.20;99.90;;;;;;1922264;74;21583;-85
2021/12/04 03:26:46;;;;;;;6.83;4.83;;;3.20;99.90;;;;;;1910403;74;21054;-85
2021/12/04 03:29:56;;;;;;;6.33;4.67;;;3.20;99.90;;;;;;1859671;76;21138;-85
2021/12/04 03:35:12;;;;;;;5.75;5.15;;;3.20;99.90;;;;;;1913992;74;21050;-85
2021/12/04 03:41:32;;;;;;;;;;;3.20;99.90;;;;;;1904400;75;21087;-86
2021/12/04 03:44:23;;;;;;;6.97;5.08;;;3.20;99.90;;;;;;1892776;75;20444;-85
2021/12/04 03:47:14;;;;;;;6.70;5.55;;;3.20;99.90;;;;;;1909926;75;21062;-85
2021/12/04 03:50:09;;;;;;;6.42;5.47;;;3.20;99.90;;;;;;1903568;75;21622;-86
2021/12/04 03:53:01;;;;;;;8.38;5.45;;;3.20;99.90;;;;;;1899907;75;21226;-85
2021/12/04 03:55:53;;;;;;;7.20;6.05;;;3.30;99.90;;;;;;1897101;75;21156;-85
2021/12/04 03:58:44;;;;;;;7.30;5.40;;;3.30;99.90;;;;;;1895497;75;21157;-85
2021/12/04 04:01:35;;;;;;;8.43;5.92;;;3.20;99.90;;;;;;1909368;75;21062;-86
2021/12/04 04:04:27;;;;;;;7.65;5.62;;;3.20;99.90;;;;;;1903859;75;21059;-85
2021/12/04 04:07:19;;;;;;;8.78;6.37;;;3.20;99.90;;;;;;1907124;74;21102;-85
2021/12/04 04:10:12;;;;;;;8.85;5.97;;;3.30;99.90;;;;;;1906727;75;21192;-85
2021/12/04 04:13:03;;;;;;;7.65;6.00;;;3.30;99.90;;;;;;1891253;75;21064;-85
2021/12/04 04:15:58;;;;;;;6.58;5.45;;;3.30;99.90;;;;;;1906041;75;21080;-86
2021/12/04 04:18:50;;;;;;;8.23;6.00;;;3.30;99.90;;;;;;1903562;75;21165;-85
2021/12/04 04:21:42;;;;;;;7.33;5.75;;;3.30;99.90;;;;;;1909299;75;21063;-85
2021/12/04 04:24:34;;;;;;;6.40;5.30;;;3.40;99.90;;;;;;1912609;75;21097;-85
2021/12/04 04:27:26;;;;;;;6.83;5.47;;;3.30;99.90;;;;;;1901404;75;21142;-85
2021/12/04 04:33:07;;;;;;;6.75;4.95;;;3.40;99.90;;;;;;1963440;72;22215;-86
2021/12/04 04:36:08;;;;;;;6.90;5.25;;;3.40;99.90;;;;;;1921491;73;21103;-85
2021/12/04 04:39:10;;;;;;;7.67;5.40;;;3.50;99.90;;;;;;1921110;73;21058;-85
2021/12/04 05:01:17;;;;;;;8.95;6.95;;;3.40;99.90;;;;;;1945077;72;22154;-85
2021/12/04 05:10:40;;;;;;;9.25;6.78;;;3.40;99.90;;;;;;1887062;75;21161;-86
2021/12/04 05:13:45;;;;;;;7.87;6.58;;;3.50;99.90;;;;;;1898111;75;21051;-85
2021/12/04 05:16:45;;;;;;;7.83;6.78;;;3.50;99.90;;;;;;1898865;75;21088;-85
2021/12/04 05:19:41;;;;;;;8.00;6.65;;;3.50;99.90;;;;;;1906724;75;21219;-85
2021/12/04 05:22:32;;;;;;;7.87;6.85;;;3.50;99.90;;;;;;1910545;75;21098;-85
2021/12/04 05:28:03;;;;;;;8.35;6.95;;;3.50;99.90;;;;;;1944945;72;22357;-85
2021/12/04 05:30:53;;;;;;;9.38;6.87;;;3.50;99.90;;;;;;1893503;75;21133;-85
2021/12/04 05:33:45;;;;;;;8.65;7.30;;;3.50;99.90;;;;;;1905159;75;21248;-85
2021/12/04 05:36:38;;;;;;;8.15;7.25;;;3.60;99.90;;;;;;1900869;75;21113;-85
2021/12/04 05:42:29;;;;;;;8.48;7.35;;;3.60;99.90;;;;;;1945773;72;22177;-86
2021/12/04 05:45:23;;;;;;;9.33;7.67;;;3.50;99.90;;;;;;1913665;74;21110;-86
2021/12/04 05:48:16;;;;;;;8.98;7.67;;;3.60;99.90;;;;;;1903982;75;21114;-86
2021/12/04 05:51:24;;;;;;;8.90;8.00;;;3.60;99.90;;;;;;1907309;75;21203;-85
2021/12/04 05:57:14;;;;;;;9.45;7.37;;;3.50;99.90;;;;;;1934557;72;22125;-86
2021/12/04 06:00:07;;;;;;;8.88;7.47;;;3.60;99.90;;;;;;1907731;74;21055;-86
2021/12/04 06:03:03;;;;;;;7.23;6.53;;;3.60;99.90;;;;;;1902095;75;21156;-85
2021/12/04 06:05:54;;;;;;;9.68;7.58;;;3.60;99.90;;;;;;1898377;75;21105;-85
2021/12/04 06:09:05;;;;;;;8.28;7.22;;;3.70;99.90;;;;;;1905757;75;21129;-85
2021/12/04 06:14:38;;;;;;;11.10;8.08;;;3.70;99.90;;;;;;1952674;72;22261;-85
2021/12/04 06:17:31;;;;;;;9.60;8.13;;;3.60;99.90;;;;;;1902156;75;21067;-84
2021/12/04 06:23:34;;;;;;;10.53;9.18;;;3.60;99.90;;;;;;1886523;75;21126;-85
2021/12/04 06:26:44;;;;;;;9.45;8.45;;;3.60;99.90;;;;;;1901455;75;21205;-85
2021/12/04 06:29:36;;;;;;;11.05;8.98;;;3.60;99.90;;;;;;1899525;75;21577;-85
2021/12/04 06:32:28;;;;;;;10.85;9.28;;;3.60;99.90;;;;;;1908424;75;21051;-85
2021/12/04 06:35:21;;;;;;;10.58;8.48;;;3.60;99.90;;;;;;1895189;75;21606;-85
2021/12/04 06:38:16;;;;;;;11.57;9.00;;;3.60;99.90;;;;;;1891920;75;21110;-85
2021/12/04 06:41:08;;;;;;;10.72;9.20;;;3.60;99.90;;;;;;1896584;75;21097;-85
2021/12/04 06:44:00;;;;;;;10.23;8.45;;;3.50;99.90;;;;;;1915167;75;21129;-85
2021/12/04 06:46:54;;;;;;;11.10;9.13;;;3.50;99.90;;;;;;1897115;75;21066;-85
2021/12/04 06:49:45;;;;;;;10.40;8.55;;;3.50;99.90;;;;;;1886382;75;21142;-84
2021/12/04 06:52:42;;;;;;;10.68;8.55;;;3.60;99.90;;;;;;1914470;75;21088;-86
2021/12/04 06:55:38;;;;;;;10.03;7.90;;;3.50;99.90;;;;;;1902356;75;21852;-85
2021/12/04 06:58:27;;;;;;;10.13;8.80;;;3.50;99.90;;;;;;1906223;75;21060;-85
2021/12/04 07:01:21;;;;;;;10.58;9.03;;;3.50;99.90;;;;;;1903855;75;21135;-85
2021/12/04 07:04:34;;;;;;;9.83;8.35;;;3.60;99.90;;;;;;1901380;75;21168;-85
2021/12/04 07:10:26;;;;;;;9.98;8.05;;;3.60;99.90;;;;;;1947271;72;22142;-86
2021/12/04 07:13:17;;;;;;;9.70;8.70;;;3.50;99.90;;;;;;1909061;75;21198;-86
2021/12/04 07:16:08;;;;;;;10.30;8.73;;;3.50;99.90;;;;;;1916107;75;21201;-86
2021/12/04 07:19:00;;;;;;;10.08;8.50;;;3.50;99.90;;;;;;1901676;75;21587;-85
2021/12/04 07:22:11;;;;;;;11.35;8.13;;;3.50;99.90;;;;;;1899538;75;21140;-85
2021/12/04 07:25:04;;;;;;;9.15;8.25;;;3.50;99.90;;;;;;1912653;75;21110;-86
2021/12/04 07:27:57;;;;;;;16.87;8.80;;;3.50;99.90;;;;;;1905455;75;21090;-86
2021/12/04 07:30:51;;;;;;;9.73;8.40;;;3.50;99.90;;;;;;1903414;75;21147;-85
2021/12/04 07:33:42;;;;;;;9.70;8.30;;;3.60;99.90;;;;;;1897870;75;21122;-85
2021/12/04 07:39:04;;;;;;;9.53;8.20;;;3.70;99.90;;;;;;1951420;72;28069;-86
2021/12/04 07:41:55;;;;;;;10.60;8.85;;;3.70;99.90;;;;;;1924310;73;21138;-84
2021/12/04 07:47:31;;;;;;;11.68;9.30;;;3.70;99.90;;;;;;1944132;72;22194;-85
2021/12/04 07:50:25;;;;;;;13.40;8.88;;;3.80;99.90;;;;;;1888613;75;21216;-86
2021/12/04 07:53:16;;;;;;;11.45;9.38;;;3.80;99.90;;;;;;1885663;75;21172;-85
2021/12/04 07:56:08;;;;;;;11.03;8.88;;;3.80;99.90;;;;;;1893083;75;21123;-85
2021/12/04 07:59:17;;;;;;;10.55;8.55;;;3.80;99.90;;;;;;1889964;75;21171;-85
2021/12/04 08:02:12;;;;;;;10.48;8.43;;;3.80;99.90;;;;;;1857686;76;21065;-84
2021/12/04 08:05:06;;;;;;;10.48;8.40;;;3.70;99.90;;;;;;1898913;75;21063;-85
2021/12/04 08:07:57;;;;;;;9.68;8.50;;;3.70;99.90;;;;;;1897612;73;21178;-85
2021/12/04 08:10:50;;;;;;;11.53;9.20;;;3.70;99.90;;;;;;1892986;75;21102;-85
2021/12/04 08:13:43;;;;;;;10.15;8.48;;;3.70;99.90;;;;;;1895540;75;21092;-85
2021/12/04 08:16:35;;;;;;;11.13;8.93;;;3.70;99.90;;;;;;1886695;75;21047;-85
2021/12/04 08:19:28;;;;;;;10.93;8.45;;;3.80;99.90;;;;;;1886477;75;21102;-85
2021/12/04 08:22:19;;;;;;;9.20;8.20;;;3.90;99.90;;;;;;1888135;75;21051;-85
2021/12/04 08:25:13;;;;;;;10.38;8.28;;;3.90;99.90;;;;;;1890293;75;21651;-85
2021/12/04 08:28:06;;;;;;;12.98;10.53;;;3.90;99.90;;;;;;1898510;75;21103;-86
2021/12/04 08:30:59;;;;;;;11.50;9.23;;;3.90;99.90;;;;;;1906970;75;21080;-86
2021/12/04 08:33:52;;;;;;;10.50;8.63;;;3.90;99.90;;;;;;1892442;75;21133;-86
2021/12/04 08:37:03;;;;;;;11.45;9.03;;;3.90;99.90;;;;;;1897485;73;21100;-86
2021/12/04 08:40:15;;;;;;;11.20;9.25;;;4.00;99.90;;;;;;1899193;75;21068;-86
2021/12/04 08:43:08;;;;;;;10.58;8.80;;;4.00;99.90;;;;;;1893969;75;21099;-87
2021/12/04 08:46:00;;;;;;;13.40;9.15;;;4.00;99.90;;;;;;1896207;75;21095;-86
2021/12/04 08:48:55;;;;;;;12.15;9.35;;;4.00;99.90;;;;;;1894543;75;21113;-86
2021/12/04 08:54:28;;;;;;;10.00;8.68;;;4.00;99.90;;;;;;1930744;72;22202;-87
2021/12/04 08:57:19;;;;;;;10.58;9.10;;;4.00;99.90;;;;;;1884876;75;21122;-86
2021/12/04 09:00:18;;;;;;;10.38;9.28;;;4.00;99.90;;;;;;1892228;75;21106;-86
2021/12/04 09:03:12;;;;;;;9.85;8.73;;;4.10;99.90;;;;;;1897938;75;21118;-88
2021/12/04 09:06:24;;;;;;;9.10;8.13;;;4.00;99.90;;;;;;1898616;75;21054;-87
2021/12/04 09:09:28;;;;;;;9.83;8.58;;;4.10;99.90;;;;;;1886108;75;21180;-86
2021/12/04 09:12:21;;;;;;;11.30;8.75;;;4.10;99.90;;;;;;1884460;75;21071;-87
2021/12/04 09:15:24;;;;;;;10.45;9.23;;;4.10;99.90;;;;;;1895044;75;21098;-86
2021/12/04 09:18:16;;;;;;;11.08;8.28;;;4.10;99.90;;;;;;1888113;75;21125;-87
2021/12/04 09:21:10;;;;;;;9.95;8.20;;;4.20;99.90;;;;;;1885320;75;21216;-87
2021/12/04 09:24:06;;;;;;;8.85;7.67;;;4.20;99.90;;;;;;1895356;75;21047;-86
2021/12/04 09:27:06;;;;;;;9.80;8.20;;;4.10;99.90;;;;;;1894945;75;21098;-84
2021/12/04 09:30:05;;;;;;;10.45;7.72;;;4.20;99.90;;;;;;1884978;75;21073;-81
2021/12/04 10:02:19;;;;;;;10.63;7.87;;;4.40;99.90;;;;;;1884575;75;21053;-83
2021/12/04 10:05:24;;;;;;;9.78;7.80;;;4.40;99.90;;;;;;1907116;75;21151;-83
2021/12/04 10:20:47;;;;;;;10.30;8.13;;;4.60;99.90;;;;;;1953387;72;22219;-83
2021/12/04 10:33:46;;;;;;;10.63;8.25;;;4.70;99.90;;;;;;1895242;75;21093;-83
2021/12/04 10:36:40;;;;;;;11.60;8.88;;;4.70;99.90;;;;;;1915433;75;21108;-83
2021/12/04 10:39:32;;;;;;;10.80;8.88;;;4.80;99.90;;;;;;1917516;75;21042;-83
2021/12/04 10:42:27;;;;;;;10.40;8.83;;;4.80;99.90;;;;;;1917490;75;21128;-84
2021/12/04 10:45:17;;;;;;;11.95;8.83;;;4.90;99.90;;;;;;1917513;75;21142;-84
2021/12/04 10:48:13;;;;;;;9.38;7.70;;;4.90;99.90;;;;;;1916251;75;21187;-84
2021/12/04 10:51:19;;;;;;;10.23;7.97;;;4.90;99.90;;;;;;1917442;75;21117;-83
2021/12/04 10:54:04;;;;;;;11.15;8.00;;;4.90;99.90;;;;;;1917052;75;21050;-84
2021/12/04 10:57:16;;;;;;;10.45;8.40;;;5.00;99.90;;;;;;1916587;75;21091;-83
2021/12/04 11:00:00;;;;;;;10.93;9.03;;;5.00;99.90;;;;;;1917897;75;21183;-84
2021/12/04 11:02:52;;;;;;;12.23;9.70;;;5.00;99.90;;;;;;1905230;75;21390;-84
2021/12/04 11:06:05;;;;;;;10.68;8.10;;;5.00;99.90;;;;;;1916654;75;21110;-83
2021/12/04 11:18:53;;;;;;;9.83;8.48;;;5.00;99.90;;;;;;1917551;75;21132;-84
2021/12/04 11:43:26;;;;;;;11.22;8.20;;;5.10;99.90;;;;;;1955437;72;22130;-84
2021/12/04 11:46:22;;;;;;;8.83;7.35;;;5.10;99.90;;;;;;1896247;75;21154;-85
2021/12/04 11:49:17;;;;;;;8.98;7.45;;;5.10;99.90;;;;;;1895040;75;21118;-85
2021/12/04 11:54:59;;;;;;;10.68;8.33;;;5.10;99.90;;;;;;1953888;72;22123;-86
2021/12/04 11:57:51;;;;;;;9.90;7.80;;;5.10;99.90;;;;;;1899101;75;21154;-84
2021/12/04 12:00:43;;;;;;;9.60;7.22;;;5.10;99.90;;;;;;1895585;75;21047;-84
2021/12/04 12:03:37;;;;;;;8.75;7.12;;;5.20;99.90;;;;;;1895360;75;21110;-85
2021/12/04 12:06:48;;;;;;;9.63;7.28;;;5.20;99.90;;;;;;1892261;75;21100;-84
2021/12/04 12:09:40;;;;;;;11.08;7.87;;;5.20;99.90;;;;;;1893332;75;21067;-85
2021/12/04 12:12:34;;;;;;;11.55;8.88;;;5.20;99.90;;;;;;1900343;75;21054;-84
2021/12/04 12:15:30;;;;;;;10.82;8.60;;;5.30;99.90;;;;;;1895364;75;21051;-84
2021/12/04 12:18:22;;;;;;;17.67;11.63;;;5.40;99.90;;;;;;1895399;75;21051;-83
2021/12/04 12:21:17;;;;;;;21.85;14.83;;;5.50;99.90;;;;;;1857319;76;21141;-83
2021/12/04 12:24:33;;;;;;;21.77;13.65;;;5.70;99.90;;;;;;1840732;77;21131;-83
2021/12/04 12:27:36;;;;;;;13.05;10.60;;;5.80;99.90;;;;;;1904315;75;21039;-84
2021/12/04 12:33:44;;;;;;;11.50;9.98;;;5.80;99.90;;;;;;1901101;75;21104;-78
2021/12/04 12:36:36;;;;;;;13.38;10.65;;;5.80;99.90;;;;;;1896633;75;21068;-79
2021/12/04 12:39:27;;;;;;;16.42;11.00;;;5.90;99.90;;;;;;1895486;75;21028;-79
2021/12/04 12:42:26;;;;;;;13.83;10.50;;;5.90;99.90;;;;;;1894153;75;21113;-79
2021/12/04 12:45:36;;;;;;;15.13;10.65;;;5.90;99.90;;;;;;1908184;75;21089;-78
2021/12/04 12:48:53;;;;;;;18.67;12.40;;;5.90;99.90;;;;;;1908966;75;21054;-79
2021/12/04 12:51:47;;;;;;;17.55;11.10;;;6.00;99.90;;;;;;1895610;75;21078;-79
2021/12/04 12:57:22;;;;;;;16.20;10.70;;;6.00;99.90;;;;;;1968373;72;22603;-80
2021/12/04 13:24:15;;;;;;;12.78;9.73;;;6.70;99.90;;;;;;1953163;72;22248;-80
2021/12/04 13:30:03;;;;;;;14.45;10.10;;;6.40;99.90;;;;;;1893593;75;21602;-80
2021/12/04 13:32:54;;;;;;;10.75;9.35;;;6.40;99.90;;;;;;1884428;75;21188;-79
2021/12/04 13:36:06;;;;;;;12.37;9.48;;;6.30;99.90;;;;;;1906412;75;21055;-79
2021/12/04 13:39:01;;;;;;;12.80;9.78;;;6.30;99.90;;;;;;1906859;75;21117;-79
2021/12/04 13:41:54;;;;;;;10.95;7.78;;;6.30;99.90;;;;;;1902322;75;21043;-80
2021/12/04 13:44:46;;;;;;;13.30;7.75;;;6.40;99.90;;;;;;1884346;75;21104;-80
2021/12/04 13:47:38;;;;;;;15.35;12.50;;;6.40;99.90;;;;;;1914119;75;21071;-80
2021/12/04 13:50:45;;;;;;;14.30;10.65;;;6.40;99.90;;;;;;1894382;75;21120;-79
2021/12/04 13:53:38;;;;;;;15.43;11.63;;;6.50;99.90;;;;;;1896979;75;21135;-80
2021/12/04 13:56:31;;;;;;;13.10;10.45;;;6.50;99.90;;;;;;1898406;75;21058;-79
2021/12/04 13:59:25;;;;;;;12.45;10.50;;;6.60;99.90;;;;;;1887409;75;21059;-79
2021/12/04 14:02:21;;;;;;;13.83;10.25;;;6.60;99.90;;;;;;1897349;75;21079;-82
2021/12/04 14:05:16;;;;;;;12.78;10.55;;;6.60;99.90;;;;;;1884567;76;21097;-78
2021/12/04 14:08:10;;;;;;;13.83;10.72;;;6.50;99.90;;;;;;1893985;75;21110;-91
2021/12/04 14:13:41;;;;;;;13.28;10.43;;;6.60;99.90;;;;;;1935162;72;22147;-81
2021/12/04 14:16:32;;;;;;;12.37;8.60;;;6.60;99.90;;;;;;1900284;75;21151;-81
2021/12/04 14:19:27;;;;;;;12.35;10.48;;;6.70;99.90;;;;;;1883944;75;21104;-81
2021/12/04 14:22:21;;;;;;;13.48;11.00;;;6.70;99.90;;;;;;1903878;75;21105;-81
2021/12/04 14:25:31;;;;;;;14.13;11.05;;;6.80;99.90;;;;;;1880653;75;21023;-80
2021/12/04 14:28:25;;;;;;;14.03;10.60;;;6.70;99.90;;;;;;1895566;75;21152;-80
2021/12/04 14:31:22;;;;;;;13.10;10.55;;;6.60;99.90;;;;;;1865812;75;21134;-80
2021/12/04 14:34:23;;;;;;;12.00;10.03;;;6.70;99.90;;;;;;1872823;76;21561;-80
2021/12/04 14:37:18;;;;;;;14.63;11.43;;;6.70;99.90;;;;;;1884157;75;21109;-80
2021/12/04 14:40:13;;;;;;;12.20;10.08;;;6.80;99.90;;;;;;1874334;75;21109;-82
2021/12/04 14:43:06;;;;;;;11.50;9.28;;;6.90;99.90;;;;;;1890218;75;21052;-81
2021/12/04 14:46:00;;;;;;;13.50;10.40;;;6.90;99.90;;;;;;1872328;73;21098;-81
2021/12/04 14:48:54;;;;;;;8.30;6.12;;;7.00;99.90;;;;;;1878110;75;21168;-81
2021/12/04 14:51:46;;;;;;;3.47;2.47;;;7.00;99.90;;;;;;1904001;75;21613;-81
2021/12/04 14:54:40;;;;;;;10.18;8.63;;;7.20;99.90;;;;;;1882755;75;21099;-81
2021/12/04 14:57:31;;;;;;;10.45;7.47;;;7.40;99.90;;;;;;1883487;75;21114;-80
2021/12/04 15:00:25;;;;;;;9.13;6.05;;;7.40;99.90;;;;;;1890120;75;21654;-80
2021/12/04 15:03:38;;;;;;;11.03;4.08;;;7.60;99.90;;;;;;1884440;75;21086;-80
2021/12/04 15:06:49;;;;;;;7.08;5.28;;;7.60;99.90;;;;;;1881835;75;21103;-81
2021/12/04 15:09:40;;;;;;;8.38;6.37;;;7.60;99.90;;;;;;1883963;74;21137;-80
2021/12/04 15:12:34;;;;;;;9.98;6.58;;;7.60;99.90;;;;;;1894108;75;21142;-81
2021/12/04 15:15:27;;;;;;;7.55;5.80;;;7.70;99.90;;;;;;1874443;75;21063;-82
2021/12/04 15:18:23;;;;;;;6.70;5.05;;;7.60;99.90;;;;;;1887606;75;21153;-81
2021/12/04 15:21:18;;;;;;;5.70;4.33;;;7.50;99.90;;;;;;1887281;75;21036;-81
2021/12/04 15:24:15;;;;;;;4.15;3.47;;;7.60;99.90;;;;;;1894438;75;21059;-80
2021/12/04 15:27:14;;;;;;;6.30;4.23;;;7.60;99.90;;;;;;1893488;75;21169;-80
2021/12/04 15:30:10;;;;;;;4.83;3.90;;;7.60;99.90;;;;;;1893753;75;21482;-80
2021/12/04 15:33:01;;;;;;;4.42;3.25;;;7.50;99.90;;;;;;1892762;75;21048;-81
2021/12/04 15:35:54;;;;;;;2.50;2.08;;;7.50;99.90;;;;;;1904395;75;21099;-81
2021/12/04 15:38:50;;;;;;;4.00;2.02;;;7.60;99.90;;;;;;1875526;75;21121;-80
2021/12/04 15:41:55;;;;;;;3.30;2.30;;;7.70;99.90;;;;;;1871862;75;21060;-81
2021/12/04 15:48:06;;;;;;;5.58;3.20;;;8.00;99.90;;;;;;1871394;75;21097;-81
2021/12/04 15:50:54;;;;;;;3.62;2.20;;;7.90;99.90;;;;;;1886327;75;21040;-81
2021/12/04 15:53:50;;;;;;;4.67;2.77;;;7.80;99.90;;;;;;1887072;75;21063;-81
2021/12/04 15:56:47;;;;;;;5.83;4.40;;;7.80;99.90;;;;;;1892233;75;21136;-80
2021/12/04 15:59:38;;;;;;;8.63;6.17;;;7.60;99.90;;;;;;1894051;75;21127;-81
2021/12/04 16:02:32;;;;;;;9.40;5.87;;;7.50;99.90;;;;;;1887057;74;21220;-81
2021/12/04 16:08:11;;;;;;;11.30;6.92;;;7.40;99.90;;;;;;1975910;72;22222;-82
2021/12/04 16:11:08;;;;;;;12.30;7.97;;;7.30;99.90;;;;;;1916608;75;21129;-81
2021/12/04 16:14:03;;;;;;;9.40;7.35;;;7.20;99.90;;;;;;1919803;73;21107;-82
2021/12/04 16:16:55;;;;;;;9.55;7.75;;;7.10;99.90;;;;;;1943470;73;21557;-81
2021/12/04 16:20:12;;;;;;;10.68;7.37;;;6.90;99.90;;;;;;1917769;73;21054;-81
2021/12/04 16:23:04;;;;;;;10.10;6.80;;;6.80;99.90;;;;;;1916393;75;21063;-82
2021/12/04 16:25:56;;;;;;;8.88;6.70;;;7.00;99.90;;;;;;1918337;73;21096;-81
2021/12/04 16:29:02;;;;;;;12.05;7.05;;;6.90;99.90;;;;;;1917263;75;21114;-81
2021/12/04 16:32:14;;;;;;;10.85;7.37;;;6.80;99.90;;;;;;1922169;73;21117;-81
